Time;durP1;ratioP1;P1;durP2;ratioP2;P2;SDS_P1;SDS_P2;PMS_P1;PMS_P2;Temp;Humidity;BMP_temperature;BMP_pressure;BME280_temperature;BME280_humidity;BME280_pressure;Samples;Min_cycle;Max_cycle;Signal;HPM_P1;HPM_P2
2023/08/26 00:03:32;;;;;;;13.20;11.90;;;;;;;20.91;82.91;99220.29;220195;1256;140561;-69
2023/08/26 00:08:35;;;;;;;11.20;10.20;;;;;;;20.82;83.26;99218.02;220687;1257;140103;-69
2023/08/26 00:13:37;;;;;;;9.10;8.30;;;;;;;20.78;83.85;99226.23;219332;1257;140752;-69
2023/08/26 00:18:39;;;;;;;10.50;9.50;;;;;;;20.76;84.16;99223.33;217930;1257;139152;-68
2023/08/26 00:23:42;;;;;;;10.40;9.50;;;;;;;20.76;84.57;99223.01;218288;1259;139823;-68
2023/08/26 00:28:45;;;;;;;18.10;11.80;;;;;;;20.74;85.06;99223.23;218093;1259;140219;-67
2023/08/26 00:33:50;;;;;;;13.30;12.00;;;;;;;20.68;85.57;99213.96;218670;1256;140126;-68
2023/08/26 00:38:52;;;;;;;13.70;12.20;;;;;;;20.65;85.93;99213.15;217928;1255;139376;-68
2023/08/26 00:43:54;;;;;;;12.30;11.00;;;;;;;20.61;86.21;99207.55;218067;1256;139707;-67
2023/08/26 00:48:57;;;;;;;14.30;12.80;;;;;;;20.58;86.44;99212.73;218107;1256;139447;-67
2023/08/26 00:54:00;;;;;;;14.60;13.10;;;;;;;20.55;86.74;99218.96;217786;1257;139614;-67
2023/08/26 00:59:02;;;;;;;14.70;13.00;;;;;;;20.52;86.83;99215.58;217715;1257;140592;-67
2023/08/26 01:04:05;;;;;;;13.60;12.40;;;;;;;20.49;87.00;99216.27;217938;1259;140446;-67
2023/08/26 01:09:07;;;;;;;13.90;12.50;;;;;;;20.48;86.91;99212.60;218067;1259;139200;-67
2023/08/26 01:14:40;;;;;;;15.10;13.70;;;;;;;20.44;86.86;99210.63;218699;1257;140600;-67
2023/08/26 01:19:44;;;;;;;14.20;12.90;;;;;;;20.38;87.03;99209.64;218340;1257;140855;-67
2023/08/26 01:24:47;;;;;;;13.90;12.50;;;;;;;20.35;87.01;99213.61;218831;1256;140274;-67
2023/08/26 01:29:54;;;;;;;13.70;12.20;;;;;;;20.31;87.12;99214.27;218917;1257;140548;-67
2023/08/26 01:35:00;;;;;;;14.50;13.20;;;;;;;20.28;87.31;99224.23;217933;1257;140826;-67
2023/08/26 01:40:06;;;;;;;;;;;;;;;20.27;87.61;99224.36;219718;1256;140887;-67
2023/08/26 01:45:11;;;;;;;14.10;12.70;;;;;;;20.25;87.67;99222.40;219914;1257;127645;-66
2023/08/26 01:50:14;;;;;;;14.60;12.20;;;;;;;20.28;87.69;99213.34;219857;1257;140055;-66
2023/08/26 01:55:17;;;;;;;12.90;11.90;;;;;;;20.30;87.44;99220.65;220503;1257;140298;-66
2023/08/26 02:00:20;;;;;;;13.30;11.80;;;;;;;20.27;86.89;99217.80;220509;1257;141629;-66
2023/08/26 02:05:23;;;;;;;13.70;12.40;;;;;;;20.23;86.58;99216.50;220656;1257;140481;-67
2023/08/26 02:10:26;;;;;;;13.80;12.40;;;;;;;20.19;86.26;99216.15;220200;1257;139456;-68
2023/08/26 02:15:28;;;;;;;13.20;11.80;;;;;;;20.14;86.06;99220.48;219199;1256;140891;-68
2023/08/26 02:20:31;;;;;;;12.90;11.50;;;;;;;20.08;85.79;99226.98;218214;1258;139594;-67
2023/08/26 02:25:34;;;;;;;12.10;10.90;;;;;;;20.01;85.82;99217.02;219457;1257;141774;-68
2023/08/26 02:30:38;;;;;;;15.10;11.60;;;;;;;19.87;85.37;99218.72;218340;1257;139867;-68
2023/08/26 02:35:51;;;;;;;14.60;11.80;;;;;;;19.77;85.33;99222.48;217715;1259;140130;-68
2023/08/26 02:40:55;;;;;;;14.00;11.60;;;;;;;19.69;85.73;99222.52;218426;1257;142066;-68
2023/08/26 02:45:59;;;;;;;13.30;12.10;;;;;;;19.61;85.62;99222.06;217884;1257;140243;-67
2023/08/26 02:51:03;;;;;;;12.90;11.10;;;;;;;19.53;85.66;99220.74;218681;1259;139633;-68
2023/08/26 02:56:08;;;;;;;17.40;10.70;;;;;;;19.45;85.50;99217.92;217816;1257;139759;-69
2023/08/26 03:01:11;;;;;;;12.40;11.10;;;;;;;19.36;85.61;99220.94;217582;1257;140305;-67
2023/08/26 03:06:14;;;;;;;11.00;9.90;;;;;;;19.30;85.85;99230.48;217815;1257;140416;-68
2023/08/26 03:11:17;;;;;;;10.90;10.00;;;;;;;19.25;86.05;99243.73;217571;1258;139667;-67
2023/08/26 03:16:19;;;;;;;10.50;9.60;;;;;;;19.21;86.03;99244.63;218255;1259;139974;-67
2023/08/26 03:21:24;;;;;;;11.50;10.30;;;;;;;19.14;86.08;99248.80;217865;1257;139853;-68
2023/08/26 03:26:28;;;;;;;16.80;9.60;;;;;;;19.12;86.26;99253.02;219487;1257;140912;-69
2023/08/26 03:31:31;;;;;;;9.60;8.70;;;;;;;19.10;86.28;99256.69;217819;1257;140962;-68
2023/08/26 03:36:34;;;;;;;10.30;9.40;;;;;;;19.07;86.34;99267.45;219314;1255;142213;-70
2023/08/26 03:41:38;;;;;;;11.90;9.60;;;;;;;19.03;86.37;99271.63;217946;1258;140111;-69
2023/08/26 03:46:42;;;;;;;10.00;9.00;;;;;;;19.03;86.54;99274.02;220468;1257;139303;-68
2023/08/26 03:51:46;;;;;;;9.00;8.20;;;;;;;19.03;86.41;99282.12;219852;1257;139707;-67
2023/08/26 03:56:49;;;;;;;10.60;9.40;;;;;;;19.02;86.52;99282.39;217821;1257;139842;-68
2023/08/26 04:01:53;;;;;;;11.00;9.90;;;;;;;19.04;86.55;99273.77;220636;1257;139577;-68
2023/08/26 04:06:57;;;;;;;16.60;9.70;;;;;;;19.08;86.66;99277.52;220057;1257;140576;-68
2023/08/26 04:12:01;;;;;;;10.90;8.80;;;;;;;19.14;86.69;99276.98;218563;1259;140339;-68
2023/08/26 04:17:05;;;;;;;10.10;8.40;;;;;;;19.18;86.58;99275.65;218524;1259;140347;-65
2023/08/26 04:22:10;;;;;;;10.50;9.40;;;;;;;19.22;86.54;99279.41;218867;1256;140353;-65
2023/08/26 04:27:13;;;;;;;11.70;9.40;;;;;;;19.26;86.61;99274.58;218040;1259;139602;-65
2023/08/26 04:32:17;;;;;;;9.00;8.00;;;;;;;19.29;86.71;99273.52;218237;1257;140397;-65
2023/08/26 04:37:22;;;;;;;12.10;9.50;;;;;;;19.30;86.76;99284.21;217945;1259;139134;-65
2023/08/26 04:42:27;;;;;;;11.50;9.20;;;;;;;19.33;86.84;99292.45;218346;1259;139998;-65
2023/08/26 04:47:31;;;;;;;9.30;8.50;;;;;;;19.41;87.26;99289.91;218305;1260;141550;-68
2023/08/26 04:52:37;;;;;;;9.80;8.80;;;;;;;19.50;87.44;99285.73;217633;1258;139539;-66
2023/08/26 04:57:41;;;;;;;9.00;8.10;;;;;;;19.56;87.34;99291.88;218150;1258;140425;-65
2023/08/26 05:02:45;;;;;;;10.00;9.00;;;;;;;19.61;87.45;99293.12;218584;1260;139621;-65
2023/08/26 05:07:50;;;;;;;7.20;6.50;;;;;;;19.71;87.72;99292.58;218050;1257;231466;-65
2023/08/26 05:12:54;;;;;;;9.00;8.20;;;;;;;19.79;87.70;99282.81;217927;1260;141288;-65
2023/08/26 05:17:57;;;;;;;11.70;8.20;;;;;;;19.90;87.86;99285.84;217761;1260;139750;-66
2023/08/26 05:23:00;;;;;;;12.10;7.80;;;;;;;20.03;87.86;99282.03;219333;1259;139383;-65
2023/08/26 05:28:04;;;;;;;9.50;7.90;;;;;;;20.15;88.05;99284.76;217795;1257;140434;-65
2023/08/26 05:33:08;;;;;;;9.70;8.70;;;;;;;20.29;88.33;99281.20;218872;1260;140739;-66
2023/08/26 05:38:12;;;;;;;9.80;8.20;;;;;;;20.43;88.44;99284.14;218199;1258;139937;-67
2023/08/26 05:43:16;;;;;;;16.90;9.00;;;;;;;20.56;88.66;99286.44;217689;1257;140487;-68
2023/08/26 05:48:19;;;;;;;9.50;8.70;;;;;;;20.69;88.80;99280.72;218637;1258;139721;-68
2023/08/26 05:53:23;;;;;;;10.30;7.50;;;;;;;20.88;88.76;99284.15;218755;1259;139459;-66
2023/08/26 05:58:27;;;;;;;8.00;7.30;;;;;;;21.03;88.55;99284.27;219037;1260;140160;-66
2023/08/26 06:03:30;;;;;;;11.30;9.40;;;;;;;21.18;88.73;99287.86;219947;1258;139432;-67
2023/08/26 06:08:38;;;;;;;9.20;6.60;;;;;;;21.42;88.86;99295.42;219319;1258;140255;-68
2023/08/26 06:13:41;;;;;;;10.70;8.80;;;;;;;21.65;88.49;99292.45;219799;1257;140031;-68
2023/08/26 06:18:47;;;;;;;11.70;8.10;;;;;;;21.79;88.04;99299.50;218865;1257;140470;-67
2023/08/26 06:23:51;;;;;;;9.30;7.40;;;;;;;21.98;87.78;99301.23;218287;1257;139840;-66
2023/08/26 06:28:55;;;;;;;8.30;7.20;;;;;;;22.12;87.18;99303.73;218383;1256;232201;-67
2023/08/26 06:33:58;;;;;;;7.50;7.00;;;;;;;22.28;87.08;99315.46;218031;1254;140741;-65
2023/08/26 06:39:03;;;;;;;7.00;6.30;;;;;;;22.43;86.35;99321.98;218823;1260;139334;-68
2023/08/26 06:44:08;;;;;;;8.80;7.00;;;;;;;22.70;85.68;99314.42;217918;1254;139669;-67
2023/08/26 06:49:12;;;;;;;8.80;7.40;;;;;;;23.39;84.99;99314.90;218022;1259;140037;-67
2023/08/26 06:54:17;;;;;;;9.20;6.40;;;;;;;24.79;83.84;99315.38;217952;1257;139616;-67
2023/08/26 06:59:20;;;;;;;16.30;5.90;;;;;;;26.33;82.22;99326.86;218039;1258;139964;-67
2023/08/26 07:04:24;;;;;;;9.10;5.10;;;;;;;27.42;79.19;99343.73;218475;1257;139513;-69
2023/08/26 07:09:28;;;;;;;6.30;4.40;;;;;;;28.09;75.93;99347.86;218195;1256;139108;-68
2023/08/26 07:14:31;;;;;;;18.10;5.70;;;;;;;28.31;73.47;99360.85;218161;1257;139898;-67
2023/08/26 07:19:34;;;;;;;4.70;4.40;;;;;;;28.51;72.89;99363.88;218268;1260;139287;-67
2023/08/26 07:24:37;;;;;;;12.00;5.30;;;;;;;29.17;72.26;99364.20;218030;1257;138668;-67
2023/08/26 07:29:41;;;;;;;5.10;4.60;;;;;;;29.62;70.69;99359.17;217923;1257;138623;-66
2023/08/26 07:34:46;;;;;;;4.30;4.00;;;;;;;29.37;68.62;99366.16;218558;1254;140822;-68
2023/08/26 07:39:56;;;;;;;5.20;4.70;;;;;;;29.46;68.43;99366.64;218187;1254;138517;-68
2023/08/26 07:45:00;;;;;;;7.40;4.50;;;;;;;29.45;67.27;99384.27;219193;1254;138770;-68
2023/08/26 07:50:05;;;;;;;6.00;4.20;;;;;;;29.33;65.81;99396.14;218227;1256;140028;-67
2023/08/26 07:55:09;;;;;;;4.50;4.20;;;;;;;28.93;64.99;99400.73;218367;1255;138925;-68
2023/08/26 08:00:15;;;;;;;5.00;3.70;;;;;;;28.86;65.41;99400.77;218662;1254;139662;-67
2023/08/26 08:05:18;;;;;;;5.60;3.60;;;;;;;29.25;66.17;99396.95;220458;1254;139671;-68
2023/08/26 08:10:22;;;;;;;4.70;4.30;;;;;;;29.55;64.59;99393.77;219783;1254;139054;-69
2023/08/26 08:15:26;;;;;;;3.30;3.10;;;;;;;29.69;63.64;99392.94;218502;1257;138351;-69
2023/08/26 08:20:32;;;;;;;2.50;2.40;;;;;;;29.99;63.17;99393.54;219297;1256;138911;-68
2023/08/26 08:25:35;;;;;;;4.10;3.10;;;;;;;29.58;60.81;99403.70;217854;1255;139164;-68
2023/08/26 08:30:39;;;;;;;3.50;3.20;;;;;;;29.07;61.09;99415.25;217882;1258;139842;-66
2023/08/26 08:35:43;;;;;;;3.00;2.50;;;;;;;29.25;61.69;99412.20;217842;1254;139068;-68
2023/08/26 08:40:46;;;;;;;4.00;3.50;;;;;;;29.23;60.55;99413.86;218243;1254;138961;-68
2023/08/26 08:45:52;;;;;;;6.10;3.30;;;;;;;28.99;60.33;99415.74;218681;1254;139312;-68
2023/08/26 08:50:58;;;;;;;4.70;3.60;;;;;;;28.94;60.66;99419.64;217976;1256;139146;-68
2023/08/26 08:56:01;;;;;;;4.00;3.60;;;;;;;28.66;60.36;99425.21;218040;1259;138923;-68
2023/08/26 09:01:05;;;;;;;3.80;3.60;;;;;;;28.39;60.94;99421.79;218042;1257;139631;-69
2023/08/26 09:06:09;;;;;;;4.90;3.50;;;;;;;28.13;61.03;99418.70;217889;1257;140010;-69
2023/08/26 09:11:14;;;;;;;6.40;3.50;;;;;;;27.75;61.28;99414.36;218727;1257;138938;-68
2023/08/26 09:16:28;;;;;;;4.10;3.70;;;;;;;27.56;61.68;99407.26;218338;1256;162260;-68
2023/08/26 09:21:46;;;;;;;3.40;3.10;;;;;;;27.44;62.16;99406.36;218850;1254;139325;-68
2023/08/26 09:27:00;;;;;;;5.80;3.60;;;;;;;27.37;62.35;99398.66;218234;1254;158717;-68
2023/08/26 09:32:03;;;;;;;10.10;4.50;;;;;;;27.47;62.41;99400.86;218966;1254;139272;-68
2023/08/26 09:37:10;;;;;;;3.80;3.50;;;;;;;27.43;62.02;99408.98;218842;1254;139935;-68
2023/08/26 09:42:13;;;;;;;3.70;3.30;;;;;;;27.59;62.32;99400.77;219904;1254;139810;-69
2023/08/26 09:47:17;;;;;;;4.20;3.80;;;;;;;27.93;62.21;99403.02;218507;1254;139019;-68
2023/08/26 09:52:21;;;;;;;3.80;3.50;;;;;;;28.25;62.14;99404.10;220745;1254;139415;-69
2023/08/26 09:57:24;;;;;;;4.80;4.20;;;;;;;28.74;62.24;99401.01;219387;1254;139549;-69
2023/08/26 10:02:28;;;;;;;4.20;3.90;;;;;;;29.21;61.28;99390.48;220907;1254;139096;-70
2023/08/26 10:07:34;;;;;;;3.20;3.00;;;;;;;29.41;60.51;99392.52;218522;1254;139982;-68
2023/08/26 10:12:42;;;;;;;6.90;4.00;;;;;;;29.57;59.59;99390.98;220457;1254;138667;-69
2023/08/26 10:17:48;;;;;;;3.30;3.10;;;;;;;29.37;58.39;99386.41;218065;1258;138866;-70
2023/08/26 10:22:52;;;;;;;3.20;3.00;;;;;;;29.02;57.81;99380.89;218459;1254;139725;-68
2023/08/26 10:27:57;;;;;;;3.20;3.00;;;;;;;28.92;58.25;99383.23;218156;1259;138968;-69
2023/08/26 10:33:01;;;;;;;;;;;;;;;28.91;58.42;99384.86;218966;1254;138976;-71
2023/08/26 10:38:13;;;;;;;4.60;3.40;;;;;;;29.19;58.82;99372.46;218596;1256;126530;-73
2023/08/26 10:43:19;;;;;;;5.60;3.80;;;;;;;29.53;58.19;99369.96;218044;1255;140696;-67
2023/08/26 10:48:24;;;;;;;6.00;4.00;;;;;;;29.97;57.78;99371.44;218310;1256;138971;-67
2023/08/26 10:53:27;;;;;;;3.90;3.50;;;;;;;30.50;56.86;99372.88;217640;1256;501184;-68
2023/08/26 10:58:46;;;;;;;3.60;3.30;;;;;;;30.75;56.15;99369.30;218375;1254;139004;-69
2023/08/26 11:03:49;;;;;;;3.60;3.00;;;;;;;30.85;56.18;99357.84;218079;1257;138563;-69
2023/08/26 11:08:57;;;;;;;3.70;3.30;;;;;;;30.72;54.78;99347.10;218182;1254;139163;-66
2023/08/26 11:14:01;;;;;;;3.80;3.50;;;;;;;30.37;54.43;99336.11;217861;1256;139009;-67
2023/08/26 11:19:06;;;;;;;7.30;4.10;;;;;;;30.19;54.03;99331.45;218303;1259;139948;-70
2023/08/26 11:24:10;;;;;;;4.50;4.00;;;;;;;30.11;53.99;99326.55;217878;1259;139962;-68
2023/08/26 11:29:17;;;;;;;5.30;4.50;;;;;;;30.37;54.11;99317.17;218865;1256;140091;-69
2023/08/26 11:34:23;;;;;;;5.20;4.10;;;;;;;30.49;53.84;99319.52;218839;1256;139698;-69
2023/08/26 11:39:33;;;;;;;4.90;4.40;;;;;;;30.71;53.16;99317.70;218311;1257;138485;-70
2023/08/26 11:44:39;;;;;;;4.20;3.80;;;;;;;30.80;52.65;99330.36;219018;1257;139630;-68
2023/08/26 11:49:44;;;;;;;5.20;4.30;;;;;;;30.65;52.48;99336.17;218909;1256;139255;-69
2023/08/26 11:54:52;;;;;;;4.40;3.40;;;;;;;30.51;52.46;99328.48;219419;1256;138984;-68
2023/08/26 12:00:09;;;;;;;4.60;4.30;;;;;;;30.74;52.49;99326.45;218432;1256;140022;-67
2023/08/26 12:05:15;;;;;;;4.20;3.90;;;;;;;31.10;52.57;99319.91;217891;1255;138694;-68
2023/08/26 12:10:22;;;;;;;4.90;4.50;;;;;;;31.10;52.03;99308.42;218203;1254;138816;-68
2023/08/26 12:15:30;;;;;;;7.10;3.80;;;;;;;31.08;51.73;99319.11;218339;1257;139617;-69
2023/08/26 12:20:36;;;;;;;7.40;4.70;;;;;;;30.71;51.22;99320.90;218635;1257;139947;-70
2023/08/26 12:25:42;;;;;;;4.30;4.00;;;;;;;30.45;51.55;99330.85;218358;1257;139211;-68
2023/08/26 12:30:47;;;;;;;4.30;4.00;;;;;;;30.26;51.89;99350.05;218060;1257;138977;-72
2023/08/26 12:35:52;;;;;;;6.60;4.40;;;;;;;30.19;52.18;99363.25;219032;1254;160419;-71
2023/08/26 12:40:58;;;;;;;6.80;4.90;;;;;;;30.09;52.22;99365.48;218001;1256;139941;-69
2023/08/26 12:46:03;;;;;;;5.90;4.30;;;;;;;29.90;52.69;99361.45;218302;1256;138511;-70
2023/08/26 12:51:11;;;;;;;4.90;4.50;;;;;;;29.63;52.72;99360.38;218216;1256;138589;-69
2023/08/26 12:56:18;;;;;;;7.40;4.70;;;;;;;29.37;53.11;99351.03;218263;1257;138883;-69
2023/08/26 13:01:26;;;;;;;5.20;4.50;;;;;;;29.28;53.64;99346.73;218224;1259;140136;-69
2023/08/26 13:06:37;;;;;;;5.50;4.80;;;;;;;29.34;54.15;99346.67;217962;1256;139213;-70
2023/08/26 13:11:45;;;;;;;4.50;4.10;;;;;;;29.42;54.69;99342.64;218424;1256;138889;-68
2023/08/26 13:16:50;;;;;;;5.40;4.70;;;;;;;29.46;54.94;99328.91;218249;1254;139710;-69
2023/08/26 13:22:00;;;;;;;4.70;4.30;;;;;;;29.42;55.20;99336.05;218424;1256;139564;-69
2023/08/26 13:27:10;;;;;;;7.80;5.00;;;;;;;29.31;55.56;99332.66;218879;1256;138977;-67
2023/08/26 13:32:25;;;;;;;48.90;8.30;;;;;;;29.27;56.61;99330.48;218937;1256;139718;-68
2023/08/26 13:37:36;;;;;;;8.40;5.10;;;;;;;29.27;57.10;99323.42;218727;1254;139285;-68
2023/08/26 13:42:41;;;;;;;9.30;5.40;;;;;;;29.23;57.77;99328.69;219115;1254;140256;-68
2023/08/26 13:47:53;;;;;;;6.00;5.00;;;;;;;29.05;58.64;99331.33;218752;1256;139369;-70
2023/08/26 13:53:07;;;;;;;6.00;4.60;;;;;;;28.83;58.49;99337.05;218895;1256;138818;-69
2023/08/26 13:58:14;;;;;;;6.00;5.40;;;;;;;28.60;59.16;99333.04;218417;1259;139566;-69
2023/08/26 14:03:21;;;;;;;5.00;4.60;;;;;;;28.36;60.53;99329.92;218447;1254;138953;-68
2023/08/26 14:08:26;;;;;;;10.80;5.90;;;;;;;28.09;61.44;99329.99;218913;1256;138287;-69
2023/08/26 14:13:31;;;;;;;6.40;5.90;;;;;;;27.80;61.01;99327.70;219268;1256;140777;-69
2023/08/26 14:18:36;;;;;;;;;;;;;;;27.61;60.91;99335.96;218807;1256;141028;-68
2023/08/26 14:23:40;;;;;;;8.90;5.60;;;;;;;27.40;60.77;99342.91;218910;1256;126029;-71
2023/08/26 14:28:45;;;;;;;6.10;5.40;;;;;;;27.22;60.83;99348.73;218213;1258;140612;-69
2023/08/26 14:33:51;;;;;;;8.60;5.60;;;;;;;27.12;61.06;99352.80;218079;1259;139525;-69
2023/08/26 14:38:56;;;;;;;7.00;5.90;;;;;;;27.12;61.41;99347.95;219058;1256;138799;-68
2023/08/26 14:44:03;;;;;;;7.60;5.70;;;;;;;27.29;61.73;99344.44;218838;1254;139883;-67
2023/08/26 14:49:07;;;;;;;6.80;6.20;;;;;;;27.55;61.72;99337.69;218316;1256;138702;-68
2023/08/26 14:54:11;;;;;;;6.60;6.00;;;;;;;27.81;61.81;99344.06;218702;1255;138427;-71
2023/08/26 14:59:15;;;;;;;5.00;4.70;;;;;;;28.10;61.20;99352.19;218297;1256;138941;-68
2023/08/26 15:04:19;;;;;;;6.00;5.40;;;;;;;28.29;60.46;99358.15;218806;1255;139596;-68
2023/08/26 15:09:23;;;;;;;5.70;5.00;;;;;;;28.36;59.49;99349.05;218532;1254;138987;-69
2023/08/26 15:14:30;;;;;;;5.60;5.10;;;;;;;28.44;59.32;99346.21;218402;1258;138830;-73
2023/08/26 15:19:36;;;;;;;5.20;4.70;;;;;;;28.46;59.01;99351.66;218728;1256;139405;-69
2023/08/26 15:24:44;;;;;;;6.10;4.20;;;;;;;28.40;58.57;99351.79;218321;1259;138891;-69
2023/08/26 15:29:48;;;;;;;6.10;5.60;;;;;;;28.44;58.36;99346.21;219828;1258;138688;-68
2023/08/26 15:34:53;;;;;;;7.60;4.80;;;;;;;28.45;58.13;99346.39;219228;1254;139082;-68
2023/08/26 15:40:02;;;;;;;7.50;4.90;;;;;;;28.41;57.72;99348.91;218493;1256;139439;-68
2023/08/26 15:45:07;;;;;;;8.30;4.80;;;;;;;28.32;57.42;99348.25;219577;1256;141780;-69
2023/08/26 15:50:15;;;;;;;8.70;4.70;;;;;;;28.27;57.45;99353.87;220582;1258;138799;-69
2023/08/26 15:55:47;;;;;;;5.10;4.60;;;;;;;28.14;57.16;99348.49;218031;1257;139320;-68
2023/08/26 16:00:59;;;;;;;5.80;4.20;;;;;;;27.96;57.08;99345.94;217898;1256;138719;-69
2023/08/26 16:06:10;;;;;;;5.90;3.50;;;;;;;27.75;56.83;99340.80;218221;1257;139572;-68
2023/08/26 16:11:30;;;;;;;12.70;5.30;;;;;;;27.60;56.72;99344.07;218296;1256;139274;-68
2023/08/26 16:16:39;;;;;;;4.30;3.90;;;;;;;27.53;56.98;99344.59;219049;1254;139062;-70
2023/08/26 16:21:54;;;;;;;6.20;4.10;;;;;;;27.45;56.98;99341.38;218332;1257;139903;-75
2023/08/26 16:26:58;;;;;;;8.10;4.60;;;;;;;27.36;57.15;99347.89;218322;1255;139391;-68
2023/08/26 16:32:01;;;;;;;8.00;3.70;;;;;;;27.27;57.04;99342.65;218901;1256;139599;-72
2023/08/26 16:37:04;;;;;;;8.90;4.60;;;;;;;27.15;57.21;99347.48;218368;1257;139738;-71
2023/08/26 16:42:07;;;;;;;4.70;4.20;;;;;;;27.05;57.83;99339.39;218670;1257;139236;-69
2023/08/26 16:47:10;;;;;;;4.40;4.00;;;;;;;26.93;58.46;99337.05;218056;1259;138513;-70
2023/08/26 16:52:13;;;;;;;5.50;4.80;;;;;;;26.76;59.11;99332.58;218185;1257;139558;-69
2023/08/26 16:57:16;;;;;;;5.60;4.60;;;;;;;26.57;59.53;99336.06;218023;1259;138941;-67
2023/08/26 17:02:19;;;;;;;17.10;5.10;;;;;;;26.37;59.89;99346.39;218128;1259;139296;-67
2023/08/26 17:07:25;;;;;;;;;;;;;;;26.15;60.47;99349.73;218525;1256;138842;-66
2023/08/26 17:12:28;;;;;;;21.40;5.60;;;;;;;25.87;61.13;99356.96;218919;1256;125784;-70
2023/08/26 17:17:31;;;;;;;5.40;4.70;;;;;;;25.67;61.97;99355.88;218749;1258;140135;-69
2023/08/26 17:22:35;;;;;;;6.30;4.90;;;;;;;25.45;62.46;99359.64;218218;1257;139811;-70
2023/08/26 17:27:39;;;;;;;6.70;3.90;;;;;;;25.26;62.91;99362.84;219320;1256;139479;-70
2023/08/26 17:32:49;;;;;;;5.50;5.10;;;;;;;25.02;63.46;99363.61;218568;1256;139343;-70
2023/08/26 17:37:54;;;;;;;6.30;4.20;;;;;;;24.66;63.74;99358.73;218565;1256;139267;-70
2023/08/26 17:42:58;;;;;;;6.60;4.50;;;;;;;24.35;64.39;99367.61;218171;1259;139828;-68
2023/08/26 17:48:01;;;;;;;5.10;4.80;;;;;;;24.09;65.12;99365.55;218583;1256;139822;-70
2023/08/26 17:53:04;;;;;;;10.30;5.20;;;;;;;23.82;65.61;99365.78;218717;1257;141213;-68
2023/08/26 17:58:09;;;;;;;5.70;5.20;;;;;;;23.54;66.28;99369.21;218790;1256;141549;-69
2023/08/26 18:03:14;;;;;;;4.60;4.10;;;;;;;23.37;66.59;99366.84;218424;1257;229179;-66
2023/08/26 18:08:22;;;;;;;8.10;4.80;;;;;;;23.17;67.04;99367.54;218393;1257;141736;-70
2023/08/26 18:13:26;;;;;;;6.20;5.70;;;;;;;22.98;67.44;99370.75;218338;1256;139787;-68
2023/08/26 18:18:30;;;;;;;20.00;7.10;;;;;;;22.84;67.68;99374.02;218571;1254;139577;-67
2023/08/26 18:23:34;;;;;;;5.50;5.00;;;;;;;22.67;68.20;99376.09;218973;1257;140070;-68
2023/08/26 18:28:38;;;;;;;7.30;5.10;;;;;;;22.52;68.40;99383.01;218056;1257;141770;-69
2023/08/26 18:33:43;;;;;;;6.00;4.90;;;;;;;22.33;68.41;99383.15;217818;1259;140802;-68
2023/08/26 18:38:46;;;;;;;8.10;5.20;;;;;;;22.13;68.59;99378.30;218250;1258;139974;-69
2023/08/26 18:43:49;;;;;;;15.00;5.70;;;;;;;21.84;69.05;99379.59;218617;1257;140171;-69
2023/08/26 18:48:52;;;;;;;5.40;4.90;;;;;;;21.73;69.84;99403.26;218746;1256;140954;-67
2023/08/26 18:53:55;;;;;;;5.30;4.90;;;;;;;21.62;70.16;99412.46;218307;1257;139667;-69
2023/08/26 18:59:01;;;;;;;5.60;5.00;;;;;;;21.51;70.56;99419.73;218115;1257;140539;-68
2023/08/26 19:04:06;;;;;;;7.00;4.60;;;;;;;21.41;70.89;99427.71;217960;1257;140319;-69
2023/08/26 19:09:09;;;;;;;7.30;5.40;;;;;;;21.27;70.97;99434.87;218124;1257;139681;-68
2023/08/26 19:14:13;;;;;;;6.30;4.70;;;;;;;21.14;71.26;99444.88;218755;1256;139327;-68
2023/08/26 19:19:17;;;;;;;5.80;4.90;;;;;;;20.95;71.42;99445.55;218607;1257;140216;-65
2023/08/26 19:24:22;;;;;;;5.10;4.60;;;;;;;20.70;71.73;99430.35;218883;1254;139305;-67
2023/08/26 19:29:26;;;;;;;5.40;5.00;;;;;;;20.41;72.09;99420.55;219224;1258;139772;-67
2023/08/26 19:34:31;;;;;;;7.40;4.70;;;;;;;20.21;72.92;99423.27;218109;1255;140229;-67
2023/08/26 19:39:34;;;;;;;5.30;4.80;;;;;;;20.09;73.52;99416.95;218867;1257;140539;-68
2023/08/26 19:44:39;;;;;;;6.20;5.60;;;;;;;19.95;74.03;99402.85;219359;1257;139577;-68
2023/08/26 19:49:42;;;;;;;5.50;5.00;;;;;;;19.88;74.57;99410.06;219328;1257;139383;-68
2023/08/26 19:54:45;;;;;;;5.90;4.90;;;;;;;19.84;74.88;99410.75;219959;1256;140054;-67
2023/08/26 19:59:51;;;;;;;5.20;4.80;;;;;;;19.81;75.09;99407.23;218092;1259;139451;-67
2023/08/26 20:04:55;;;;;;;7.00;5.60;;;;;;;19.75;75.21;99414.06;218421;1257;139410;-66
2023/08/26 20:09:59;;;;;;;8.30;4.90;;;;;;;19.70;75.62;99422.27;218473;1257;139735;-67
2023/08/26 20:15:05;;;;;;;7.60;6.80;;;;;;;19.66;75.73;99418.63;218491;1259;139417;-71
2023/08/26 20:20:10;;;;;;;8.20;5.80;;;;;;;19.65;76.08;99402.65;218700;1256;139910;-69
2023/08/26 20:25:13;;;;;;;7.20;6.30;;;;;;;19.52;76.10;99404.22;217976;1257;139655;-71
2023/08/26 20:30:17;;;;;;;13.10;7.80;;;;;;;19.38;76.42;99400.89;218198;1259;139691;-70
2023/08/26 20:35:21;;;;;;;13.00;8.00;;;;;;;19.30;76.89;99406.61;217942;1259;139878;-67
2023/08/26 20:40:25;;;;;;;8.10;7.20;;;;;;;19.31;77.27;99404.75;218726;1256;140946;-68
2023/08/26 20:45:29;;;;;;;13.40;7.90;;;;;;;19.25;77.27;99391.52;217895;1256;142562;-69
2023/08/26 20:50:34;;;;;;;13.40;9.00;;;;;;;19.12;77.60;99385.17;218069;1257;162726;-70
2023/08/26 20:55:38;;;;;;;9.20;7.50;;;;;;;19.13;78.06;99385.00;217893;1259;139396;-69
2023/08/26 21:00:43;;;;;;;7.90;7.00;;;;;;;19.14;78.32;99377.05;217966;1257;139876;-71
2023/08/26 21:05:50;;;;;;;12.00;8.50;;;;;;;19.09;78.33;99369.41;218076;1257;139759;-72
2023/08/26 21:10:52;;;;;;;8.80;7.90;;;;;;;19.06;78.64;99368.16;218145;1257;139993;-69
2023/08/26 21:15:56;;;;;;;10.70;8.50;;;;;;;19.06;78.79;99368.06;218070;1259;139622;-68
2023/08/26 21:21:00;;;;;;;13.30;9.60;;;;;;;19.04;78.80;99372.69;218761;1259;139662;-70
2023/08/26 21:26:03;;;;;;;9.80;8.40;;;;;;;18.97;79.05;99382.77;218017;1256;139654;-69
2023/08/26 21:31:08;;;;;;;10.20;8.80;;;;;;;18.95;79.44;99391.13;218582;1254;140951;-69
2023/08/26 21:36:11;;;;;;;12.50;8.80;;;;;;;18.94;79.61;99394.62;218828;1257;140961;-69
2023/08/26 21:41:15;;;;;;;10.20;7.90;;;;;;;18.85;79.47;99393.95;218115;1257;139959;-67
2023/08/26 21:46:18;;;;;;;13.30;8.00;;;;;;;18.73;79.88;99400.92;217939;1257;139731;-69
2023/08/26 21:51:22;;;;;;;12.40;9.10;;;;;;;18.71;80.47;99409.52;219959;1259;154747;-69
2023/08/26 21:56:25;;;;;;;10.80;9.30;;;;;;;18.77;80.84;99405.60;220279;1258;139910;-70
2023/08/26 22:01:30;;;;;;;10.60;8.90;;;;;;;18.86;80.96;99400.42;218478;1257;139777;-69
2023/08/26 22:06:33;;;;;;;12.00;9.70;;;;;;;18.93;81.13;99403.17;218834;1257;139764;-71
2023/08/26 22:11:36;;;;;;;12.70;8.40;;;;;;;18.94;81.02;99400.34;218247;1257;140703;-71
2023/08/26 22:16:40;;;;;;;8.50;7.60;;;;;;;18.94;81.17;99384.67;218016;1259;139596;-69
2023/08/26 22:21:44;;;;;;;10.60;7.90;;;;;;;18.94;81.38;99365.93;218127;1257;140253;-68
2023/08/26 22:26:47;;;;;;;11.20;8.50;;;;;;;18.93;81.42;99351.86;218690;1256;208776;-69
2023/08/26 22:31:51;;;;;;;9.20;8.20;;;;;;;18.90;81.27;99355.85;217890;1258;141806;-67
2023/08/26 22:36:55;;;;;;;9.40;8.50;;;;;;;18.81;81.31;99379.34;218154;1258;139329;-69
2023/08/26 22:41:59;;;;;;;7.90;7.30;;;;;;;18.74;81.50;99411.52;218577;1257;139119;-70
2023/08/26 22:47:02;;;;;;;8.10;7.30;;;;;;;18.63;81.41;99413.39;218233;1257;140003;-70
2023/08/26 22:52:05;;;;;;;13.90;8.60;;;;;;;18.58;81.89;99399.05;216925;1258;1470606;-70
2023/08/26 22:57:09;;;;;;;8.30;7.40;;;;;;;18.60;82.32;99377.33;218410;1259;139975;-70
2023/08/26 23:02:12;;;;;;;9.00;7.70;;;;;;;18.56;82.13;99369.44;218197;1259;140618;-70
2023/08/26 23:07:16;;;;;;;8.90;8.00;;;;;;;18.51;82.61;99373.88;217881;1258;139804;-67
2023/08/26 23:12:19;;;;;;;11.30;7.50;;;;;;;18.55;82.89;99382.41;218969;1257;139839;-67
2023/08/26 23:17:26;;;;;;;12.00;8.20;;;;;;;18.54;83.24;99384.20;218050;1259;139728;-69